sensor_id;sensor_type;location;lat;lon;timestamp;P1;durP1;ratioP1;P2;durP2;ratioP2
9729;SDS011;4904;49.152;11.004;2022-11-15T00:02:24;6.28;;;4.80;;
9729;SDS011;4904;49.152;11.004;2022-11-15T00:04:52;5.57;;;5.00;;
9729;SDS011;4904;49.152;11.004;2022-11-15T00:07:19;7.28;;;4.13;;
9729;SDS011;4904;49.152;11.004;2022-11-15T00:09:45;5.80;;;4.60;;
9729;SDS011;4904;49.152;11.004;2022-11-15T00:12:12;5.45;;;4.65;;
9729;SDS011;4904;49.152;11.004;2022-11-15T00:14:39;5.38;;;4.82;;
9729;SDS011;4904;49.152;11.004;2022-11-15T00:17:06;5.35;;;4.80;;
9729;SDS011;4904;49.152;11.004;2022-11-15T00:19:33;6.22;;;4.43;;
9729;SDS011;4904;49.152;11.004;2022-11-15T00:22:01;5.00;;;4.50;;
9729;SDS011;4904;49.152;11.004;2022-11-15T00:24:28;4.85;;;4.35;;
9729;SDS011;4904;49.152;11.004;2022-11-15T00:26:55;5.78;;;4.47;;
9729;SDS011;4904;49.152;11.004;2022-11-15T00:29:22;5.75;;;4.40;;
9729;SDS011;4904;49.152;11.004;2022-11-15T00:31:49;4.50;;;4.10;;
9729;SDS011;4904;49.152;11.004;2022-11-15T00:34:16;5.35;;;3.85;;
9729;SDS011;4904;49.152;11.004;2022-11-15T00:36:43;5.45;;;4.50;;
9729;SDS011;4904;49.152;11.004;2022-11-15T00:39:11;5.53;;;4.07;;
9729;SDS011;4904;49.152;11.004;2022-11-15T00:41:38;8.75;;;5.10;;
9729;SDS011;4904;49.152;11.004;2022-11-15T00:44:05;7.00;;;4.63;;
9729;SDS011;4904;49.152;11.004;2022-11-15T00:46:31;7.75;;;4.82;;
9729;SDS011;4904;49.152;11.004;2022-11-15T00:48:58;6.47;;;4.72;;
9729;SDS011;4904;49.152;11.004;2022-11-15T00:51:25;6.90;;;4.43;;
9729;SDS011;4904;49.152;11.004;2022-11-15T00:53:52;4.90;;;4.40;;
9729;SDS011;4904;49.152;11.004;2022-11-15T00:56:20;5.90;;;4.28;;
9729;SDS011;4904;49.152;11.004;2022-11-15T00:58:47;6.70;;;4.60;;
9729;SDS011;4904;49.152;11.004;2022-11-15T01:01:14;7.68;;;4.60;;
9729;SDS011;4904;49.152;11.004;2022-11-15T01:03:41;6.55;;;4.45;;
9729;SDS011;4904;49.152;11.004;2022-11-15T01:06:08;5.45;;;4.47;;
9729;SDS011;4904;49.152;11.004;2022-11-15T01:08:36;4.97;;;4.40;;
9729;SDS011;4904;49.152;11.004;2022-11-15T01:11:05;6.15;;;4.55;;
9729;SDS011;4904;49.152;11.004;2022-11-15T01:13:35;6.38;;;4.57;;
9729;SDS011;4904;49.152;11.004;2022-11-15T01:16:07;5.93;;;4.60;;
9729;SDS011;4904;49.152;11.004;2022-11-15T01:18:35;7.30;;;4.77;;
9729;SDS011;4904;49.152;11.004;2022-11-15T01:21:04;5.57;;;4.80;;
9729;SDS011;4904;49.152;11.004;2022-11-15T01:23:32;6.35;;;4.20;;
9729;SDS011;4904;49.152;11.004;2022-11-15T01:25:59;4.70;;;4.03;;
9729;SDS011;4904;49.152;11.004;2022-11-15T01:28:29;5.20;;;4.65;;
9729;SDS011;4904;49.152;11.004;2022-11-15T01:30:58;7.40;;;4.40;;
9729;SDS011;4904;49.152;11.004;2022-11-15T01:33:25;6.63;;;4.60;;
9729;SDS011;4904;49.152;11.004;2022-11-15T01:35:52;4.97;;;4.20;;
9729;SDS011;4904;49.152;11.004;2022-11-15T01:38:21;7.27;;;4.67;;
9729;SDS011;4904;49.152;11.004;2022-11-15T01:40:48;4.57;;;4.17;;
9729;SDS011;4904;49.152;11.004;2022-11-15T01:46:03;5.47;;;4.70;;
9729;SDS011;4904;49.152;11.004;2022-11-15T01:48:33;6.17;;;4.60;;
9729;SDS011;4904;49.152;11.004;2022-11-15T01:51:10;5.23;;;4.67;;
9729;SDS011;4904;49.152;11.004;2022-11-15T01:53:41;5.27;;;4.67;;
9729;SDS011;4904;49.152;11.004;2022-11-15T01:56:13;6.80;;;5.43;;
9729;SDS011;4904;49.152;11.004;2022-11-15T01:58:42;7.87;;;5.13;;
9729;SDS011;4904;49.152;11.004;2022-11-15T02:01:13;5.83;;;4.40;;
9729;SDS011;4904;49.152;11.004;2022-11-15T02:03:43;5.95;;;4.40;;
9729;SDS011;4904;49.152;11.004;2022-11-15T02:06:17;4.87;;;4.40;;
9729;SDS011;4904;49.152;11.004;2022-11-15T02:08:45;4.40;;;3.83;;
9729;SDS011;4904;49.152;11.004;2022-11-15T02:11:12;4.63;;;4.23;;
9729;SDS011;4904;49.152;11.004;2022-11-15T02:13:38;5.37;;;4.37;;
9729;SDS011;4904;49.152;11.004;2022-11-15T02:16:08;4.38;;;3.97;;
9729;SDS011;4904;49.152;11.004;2022-11-15T02:18:46;5.23;;;4.43;;
9729;SDS011;4904;49.152;11.004;2022-11-15T02:21:19;5.50;;;4.10;;
9729;SDS011;4904;49.152;11.004;2022-11-15T02:24:14;5.43;;;4.37;;
9729;SDS011;4904;49.152;11.004;2022-11-15T02:30:23;6.90;;;4.72;;
9729;SDS011;4904;49.152;11.004;2022-11-15T02:32:52;7.13;;;4.83;;
9729;SDS011;4904;49.152;11.004;2022-11-15T02:35:26;5.70;;;4.63;;
9729;SDS011;4904;49.152;11.004;2022-11-15T02:38:02;6.17;;;4.97;;
9729;SDS011;4904;49.152;11.004;2022-11-15T02:40:34;6.67;;;4.90;;
9729;SDS011;4904;49.152;11.004;2022-11-15T02:43:18;6.07;;;5.07;;
9729;SDS011;4904;49.152;11.004;2022-11-15T02:46:11;6.27;;;4.93;;
9729;SDS011;4904;49.152;11.004;2022-11-15T02:48:46;6.40;;;5.20;;
9729;SDS011;4904;49.152;11.004;2022-11-15T02:51:16;6.37;;;5.33;;
9729;SDS011;4904;49.152;11.004;2022-11-15T02:53:44;7.73;;;5.63;;
9729;SDS011;4904;49.152;11.004;2022-11-15T02:56:13;6.50;;;5.50;;
9729;SDS011;4904;49.152;11.004;2022-11-15T02:58:48;6.50;;;5.13;;
9729;SDS011;4904;49.152;11.004;2022-11-15T03:01:31;7.33;;;5.10;;
9729;SDS011;4904;49.152;11.004;2022-11-15T03:04:11;7.53;;;5.93;;
9729;SDS011;4904;49.152;11.004;2022-11-15T03:06:49;6.53;;;5.17;;
9729;SDS011;4904;49.152;11.004;2022-11-15T03:09:25;6.73;;;5.90;;
9729;SDS011;4904;49.152;11.004;2022-11-15T03:12:00;8.57;;;5.63;;
9729;SDS011;4904;49.152;11.004;2022-11-15T03:14:34;6.77;;;6.00;;
9729;SDS011;4904;49.152;11.004;2022-11-15T03:17:08;6.30;;;5.70;;
9729;SDS011;4904;49.152;11.004;2022-11-15T03:19:43;6.53;;;5.73;;
9729;SDS011;4904;49.152;11.004;2022-11-15T03:22:13;7.80;;;6.57;;
9729;SDS011;4904;49.152;11.004;2022-11-15T03:24:42;8.53;;;5.70;;
9729;SDS011;4904;49.152;11.004;2022-11-15T03:27:12;6.00;;;5.40;;
9729;SDS011;4904;49.152;11.004;2022-11-15T03:29:44;6.67;;;6.07;;
9729;SDS011;4904;49.152;11.004;2022-11-15T03:32:18;7.77;;;5.80;;
9729;SDS011;4904;49.152;11.004;2022-11-15T03:34:50;6.73;;;5.23;;
9729;SDS011;4904;49.152;11.004;2022-11-15T03:37:22;6.43;;;5.27;;
9729;SDS011;4904;49.152;11.004;2022-11-15T03:39:55;6.10;;;5.50;;
9729;SDS011;4904;49.152;11.004;2022-11-15T03:42:25;6.57;;;5.90;;
9729;SDS011;4904;49.152;11.004;2022-11-15T03:44:57;6.90;;;5.00;;
9729;SDS011;4904;49.152;11.004;2022-11-15T03:47:32;6.97;;;5.53;;
9729;SDS011;4904;49.152;11.004;2022-11-15T03:50:06;6.72;;;5.75;;
9729;SDS011;4904;49.152;11.004;2022-11-15T03:52:36;8.90;;;5.33;;
9729;SDS011;4904;49.152;11.004;2022-11-15T03:55:06;6.27;;;5.67;;
9729;SDS011;4904;49.152;11.004;2022-11-15T03:57:36;6.57;;;5.87;;
9729;SDS011;4904;49.152;11.004;2022-11-15T04:00:03;7.77;;;5.50;;
9729;SDS011;4904;49.152;11.004;2022-11-15T04:02:33;7.20;;;5.77;;
9729;SDS011;4904;49.152;11.004;2022-11-15T04:04:59;8.37;;;5.33;;
9729;SDS011;4904;49.152;11.004;2022-11-15T04:07:26;6.40;;;5.40;;
9729;SDS011;4904;49.152;11.004;2022-11-15T04:09:53;6.83;;;5.77;;
9729;SDS011;4904;49.152;11.004;2022-11-15T04:12:29;6.43;;;5.37;;
9729;SDS011;4904;49.152;11.004;2022-11-15T04:14:59;7.20;;;5.93;;
9729;SDS011;4904;49.152;11.004;2022-11-15T04:17:35;6.10;;;5.27;;
9729;SDS011;4904;49.152;11.004;2022-11-15T04:20:03;8.07;;;5.40;;
9729;SDS011;4904;49.152;11.004;2022-11-15T04:22:48;7.73;;;5.87;;
9729;SDS011;4904;49.152;11.004;2022-11-15T04:25:32;6.87;;;6.13;;
9729;SDS011;4904;49.152;11.004;2022-11-15T04:27:59;7.43;;;6.17;;
9729;SDS011;4904;49.152;11.004;2022-11-15T04:30:26;6.37;;;5.77;;
9729;SDS011;4904;49.152;11.004;2022-11-15T04:32:54;6.67;;;5.10;;
9729;SDS011;4904;49.152;11.004;2022-11-15T04:35:21;8.10;;;5.70;;
9729;SDS011;4904;49.152;11.004;2022-11-15T04:37:48;6.47;;;5.77;;
9729;SDS011;4904;49.152;11.004;2022-11-15T04:40:15;8.30;;;5.20;;
9729;SDS011;4904;49.152;11.004;2022-11-15T04:42:42;8.32;;;6.07;;
9729;SDS011;4904;49.152;11.004;2022-11-15T04:45:09;9.80;;;5.90;;
9729;SDS011;4904;49.152;11.004;2022-11-15T04:47:36;9.33;;;6.20;;
9729;SDS011;4904;49.152;11.004;2022-11-15T04:50:05;7.00;;;5.73;;
9729;SDS011;4904;49.152;11.004;2022-11-15T04:52:32;6.83;;;5.90;;
9729;SDS011;4904;49.152;11.004;2022-11-15T04:54:59;6.70;;;5.37;;
9729;SDS011;4904;49.152;11.004;2022-11-15T04:57:26;7.53;;;5.50;;
9729;SDS011;4904;49.152;11.004;2022-11-15T04:59:53;6.03;;;5.40;;
9729;SDS011;4904;49.152;11.004;2022-11-15T05:02:20;7.37;;;6.23;;
9729;SDS011;4904;49.152;11.004;2022-11-15T05:04:46;9.03;;;5.43;;
9729;SDS011;4904;49.152;11.004;2022-11-15T05:07:14;6.13;;;5.47;;
9729;SDS011;4904;49.152;11.004;2022-11-15T05:09:40;7.60;;;6.30;;
9729;SDS011;4904;49.152;11.004;2022-11-15T05:12:07;6.73;;;6.00;;
9729;SDS011;4904;49.152;11.004;2022-11-15T05:14:34;6.87;;;5.87;;
9729;SDS011;4904;49.152;11.004;2022-11-15T05:17:01;8.27;;;6.00;;
9729;SDS011;4904;49.152;11.004;2022-11-15T05:19:28;7.00;;;5.77;;
9729;SDS011;4904;49.152;11.004;2022-11-15T05:21:55;10.73;;;6.83;;
9729;SDS011;4904;49.152;11.004;2022-11-15T05:24:23;6.10;;;5.27;;
9729;SDS011;4904;49.152;11.004;2022-11-15T05:26:50;7.40;;;5.80;;
9729;SDS011;4904;49.152;11.004;2022-11-15T05:29:17;10.20;;;7.13;;
9729;SDS011;4904;49.152;11.004;2022-11-15T05:31:44;13.30;;;9.73;;
9729;SDS011;4904;49.152;11.004;2022-11-15T05:34:11;11.50;;;7.30;;
9729;SDS011;4904;49.152;11.004;2022-11-15T05:36:38;7.70;;;6.50;;
9729;SDS011;4904;49.152;11.004;2022-11-15T05:39:08;8.55;;;6.35;;
9729;SDS011;4904;49.152;11.004;2022-11-15T05:41:37;7.33;;;5.73;;
9729;SDS011;4904;49.152;11.004;2022-11-15T05:44:06;6.27;;;5.67;;
9729;SDS011;4904;49.152;11.004;2022-11-15T05:46:35;9.67;;;6.13;;
9729;SDS011;4904;49.152;11.004;2022-11-15T05:49:04;9.83;;;6.73;;
9729;SDS011;4904;49.152;11.004;2022-11-15T05:51:33;7.27;;;6.50;;
9729;SDS011;4904;49.152;11.004;2022-11-15T05:54:00;10.20;;;6.83;;
9729;SDS011;4904;49.152;11.004;2022-11-15T05:56:28;9.80;;;6.60;;
9729;SDS011;4904;49.152;11.004;2022-11-15T05:58:57;12.00;;;6.37;;
9729;SDS011;4904;49.152;11.004;2022-11-15T06:01:25;11.73;;;6.50;;
9729;SDS011;4904;49.152;11.004;2022-11-15T06:03:53;10.17;;;6.47;;
9729;SDS011;4904;49.152;11.004;2022-11-15T06:06:19;13.50;;;6.87;;
9729;SDS011;4904;49.152;11.004;2022-11-15T06:08:46;12.00;;;6.90;;
9729;SDS011;4904;49.152;11.004;2022-11-15T06:11:13;14.67;;;7.13;;
9729;SDS011;4904;49.152;11.004;2022-11-15T06:13:40;7.93;;;6.20;;
9729;SDS011;4904;49.152;11.004;2022-11-15T06:16:09;8.53;;;6.47;;
9729;SDS011;4904;49.152;11.004;2022-11-15T06:18:35;9.83;;;6.13;;
9729;SDS011;4904;49.152;11.004;2022-11-15T06:21:03;14.67;;;7.07;;
9729;SDS011;4904;49.152;11.004;2022-11-15T06:23:31;11.83;;;6.50;;
9729;SDS011;4904;49.152;11.004;2022-11-15T06:25:59;11.43;;;7.10;;
9729;SDS011;4904;49.152;11.004;2022-11-15T06:28:27;14.73;;;6.37;;
9729;SDS011;4904;49.152;11.004;2022-11-15T06:30:55;12.50;;;8.23;;
9729;SDS011;4904;49.152;11.004;2022-11-15T06:33:23;11.93;;;9.03;;
9729;SDS011;4904;49.152;11.004;2022-11-15T06:35:50;13.73;;;10.43;;
9729;SDS011;4904;49.152;11.004;2022-11-15T06:38:17;10.03;;;8.00;;
9729;SDS011;4904;49.152;11.004;2022-11-15T06:40:44;10.47;;;8.47;;
9729;SDS011;4904;49.152;11.004;2022-11-15T06:43:11;12.57;;;9.13;;
9729;SDS011;4904;49.152;11.004;2022-11-15T06:45:39;10.63;;;9.30;;
9729;SDS011;4904;49.152;11.004;2022-11-15T06:48:06;11.43;;;9.13;;
9729;SDS011;4904;49.152;11.004;2022-11-15T06:50:34;11.67;;;9.23;;
9729;SDS011;4904;49.152;11.004;2022-11-15T06:53:03;12.07;;;9.33;;
9729;SDS011;4904;49.152;11.004;2022-11-15T06:55:30;10.77;;;8.63;;
9729;SDS011;4904;49.152;11.004;2022-11-15T06:57:57;10.23;;;8.50;;
9729;SDS011;4904;49.152;11.004;2022-11-15T07:00:24;11.53;;;8.37;;
9729;SDS011;4904;49.152;11.004;2022-11-15T07:02:51;9.00;;;7.43;;
9729;SDS011;4904;49.152;11.004;2022-11-15T07:05:18;9.17;;;7.77;;
9729;SDS011;4904;49.152;11.004;2022-11-15T07:07:51;9.77;;;7.60;;
9729;SDS011;4904;49.152;11.004;2022-11-15T07:10:19;8.60;;;6.93;;
9729;SDS011;4904;49.152;11.004;2022-11-15T07:12:46;11.23;;;6.70;;
9729;SDS011;4904;49.152;11.004;2022-11-15T07:15:14;9.40;;;7.17;;
9729;SDS011;4904;49.152;11.004;2022-11-15T07:17:41;7.53;;;6.73;;
9729;SDS011;4904;49.152;11.004;2022-11-15T07:20:08;14.30;;;7.10;;
9729;SDS011;4904;49.152;11.004;2022-11-15T07:22:36;8.32;;;6.20;;
9729;SDS011;4904;49.152;11.004;2022-11-15T07:25:04;8.97;;;6.43;;
9729;SDS011;4904;49.152;11.004;2022-11-15T07:27:31;9.57;;;6.43;;
9729;SDS011;4904;49.152;11.004;2022-11-15T07:29:59;8.07;;;6.10;;
9729;SDS011;4904;49.152;11.004;2022-11-15T07:32:25;6.77;;;5.63;;
9729;SDS011;4904;49.152;11.004;2022-11-15T07:34:52;7.37;;;6.30;;
9729;SDS011;4904;49.152;11.004;2022-11-15T07:37:19;7.70;;;5.83;;
9729;SDS011;4904;49.152;11.004;2022-11-15T07:39:46;9.50;;;6.03;;
9729;SDS011;4904;49.152;11.004;2022-11-15T07:42:14;10.82;;;6.75;;
9729;SDS011;4904;49.152;11.004;2022-11-15T07:44:59;9.60;;;6.70;;
9729;SDS011;4904;49.152;11.004;2022-11-15T07:47:27;7.00;;;5.60;;
9729;SDS011;4904;49.152;11.004;2022-11-15T07:49:54;9.07;;;5.55;;
9729;SDS011;4904;49.152;11.004;2022-11-15T07:52:21;7.10;;;5.63;;
9729;SDS011;4904;49.152;11.004;2022-11-15T07:54:48;7.68;;;5.35;;
9729;SDS011;4904;49.152;11.004;2022-11-15T07:57:17;6.18;;;5.57;;
9729;SDS011;4904;49.152;11.004;2022-11-15T07:59:44;8.18;;;6.10;;
9729;SDS011;4904;49.152;11.004;2022-11-15T08:02:10;5.70;;;5.10;;
9729;SDS011;4904;49.152;11.004;2022-11-15T08:04:37;5.90;;;5.00;;
9729;SDS011;4904;49.152;11.004;2022-11-15T08:07:04;8.15;;;5.53;;
9729;SDS011;4904;49.152;11.004;2022-11-15T08:09:31;10.68;;;5.97;;
9729;SDS011;4904;49.152;11.004;2022-11-15T08:11:58;7.45;;;5.75;;
9729;SDS011;4904;49.152;11.004;2022-11-15T08:14:26;5.47;;;4.68;;
9729;SDS011;4904;49.152;11.004;2022-11-15T08:16:54;8.13;;;4.45;;
9729;SDS011;4904;49.152;11.004;2022-11-15T08:19:21;5.10;;;4.60;;
9729;SDS011;4904;49.152;11.004;2022-11-15T08:21:47;6.45;;;4.75;;
9729;SDS011;4904;49.152;11.004;2022-11-15T08:24:15;8.07;;;4.97;;
9729;SDS011;4904;49.152;11.004;2022-11-15T08:26:42;6.38;;;4.63;;
9729;SDS011;4904;49.152;11.004;2022-11-15T08:29:09;5.97;;;5.38;;
9729;SDS011;4904;49.152;11.004;2022-11-15T08:31:38;7.10;;;5.05;;
9729;SDS011;4904;49.152;11.004;2022-11-15T08:34:05;5.15;;;4.65;;
9729;SDS011;4904;49.152;11.004;2022-11-15T08:36:32;5.03;;;4.38;;
9729;SDS011;4904;49.152;11.004;2022-11-15T08:38:59;5.28;;;4.63;;
9729;SDS011;4904;49.152;11.004;2022-11-15T08:41:26;6.53;;;4.63;;
9729;SDS011;4904;49.152;11.004;2022-11-15T08:43:56;6.00;;;4.53;;
9729;SDS011;4904;49.152;11.004;2022-11-15T08:46:23;4.22;;;3.83;;
9729;SDS011;4904;49.152;11.004;2022-11-15T08:48:52;5.32;;;4.45;;
9729;SDS011;4904;49.152;11.004;2022-11-15T08:51:19;4.30;;;3.90;;
9729;SDS011;4904;49.152;11.004;2022-11-15T08:53:46;4.70;;;3.88;;
9729;SDS011;4904;49.152;11.004;2022-11-15T08:56:14;4.63;;;3.85;;
9729;SDS011;4904;49.152;11.004;2022-11-15T08:58:41;4.00;;;3.35;;
9729;SDS011;4904;49.152;11.004;2022-11-15T09:01:13;3.80;;;3.40;;
9729;SDS011;4904;49.152;11.004;2022-11-15T09:03:42;3.47;;;3.17;;
9729;SDS011;4904;49.152;11.004;2022-11-15T09:06:10;3.42;;;3.13;;
9729;SDS011;4904;49.152;11.004;2022-11-15T09:08:37;3.63;;;3.28;;
9729;SDS011;4904;49.152;11.004;2022-11-15T09:11:05;5.07;;;3.45;;
9729;SDS011;4904;49.152;11.004;2022-11-15T09:13:33;3.90;;;3.10;;
9729;SDS011;4904;49.152;11.004;2022-11-15T09:16:02;3.58;;;3.28;;
9729;SDS011;4904;49.152;11.004;2022-11-15T09:18:30;5.13;;;3.50;;
9729;SDS011;4904;49.152;11.004;2022-11-15T09:20:58;5.40;;;3.92;;
9729;SDS011;4904;49.152;11.004;2022-11-15T09:23:28;5.20;;;4.65;;
9729;SDS011;4904;49.152;11.004;2022-11-15T09:25:58;6.38;;;4.35;;
9729;SDS011;4904;49.152;11.004;2022-11-15T09:28:26;6.20;;;5.18;;
9729;SDS011;4904;49.152;11.004;2022-11-15T09:30:55;6.05;;;4.32;;
9729;SDS011;4904;49.152;11.004;2022-11-15T09:33:23;4.43;;;4.03;;
9729;SDS011;4904;49.152;11.004;2022-11-15T09:35:50;6.25;;;4.47;;
9729;SDS011;4904;49.152;11.004;2022-11-15T09:38:17;6.88;;;5.03;;
9729;SDS011;4904;49.152;11.004;2022-11-15T09:40:46;4.00;;;3.65;;
9729;SDS011;4904;49.152;11.004;2022-11-15T09:43:27;4.10;;;3.72;;
9729;SDS011;4904;49.152;11.004;2022-11-15T09:46:02;7.20;;;3.75;;
9729;SDS011;4904;49.152;11.004;2022-11-15T09:48:43;4.45;;;3.83;;
9729;SDS011;4904;49.152;11.004;2022-11-15T09:51:19;4.13;;;3.60;;
9729;SDS011;4904;49.152;11.004;2022-11-15T09:53:53;4.95;;;3.67;;
9729;SDS011;4904;49.152;11.004;2022-11-15T09:56:29;3.65;;;3.15;;
9729;SDS011;4904;49.152;11.004;2022-11-15T09:59:00;4.53;;;2.80;;
9729;SDS011;4904;49.152;11.004;2022-11-15T10:01:49;3.50;;;2.58;;
9729;SDS011;4904;49.152;11.004;2022-11-15T10:04:23;4.05;;;2.60;;
9729;SDS011;4904;49.152;11.004;2022-11-15T10:06:53;2.70;;;2.50;;
9729;SDS011;4904;49.152;11.004;2022-11-15T10:09:28;3.63;;;2.50;;
9729;SDS011;4904;49.152;11.004;2022-11-15T10:12:01;2.42;;;2.22;;
9729;SDS011;4904;49.152;11.004;2022-11-15T10:14:29;3.38;;;2.20;;
9729;SDS011;4904;49.152;11.004;2022-11-15T10:20:06;2.63;;;2.40;;
9729;SDS011;4904;49.152;11.004;2022-11-15T10:22:38;2.70;;;2.50;;
9729;SDS011;4904;49.152;11.004;2022-11-15T10:25:12;3.78;;;2.10;;
9729;SDS011;4904;49.152;11.004;2022-11-15T10:27:52;4.22;;;2.60;;
9729;SDS011;4904;49.152;11.004;2022-11-15T10:30:21;4.65;;;2.10;;
9729;SDS011;4904;49.152;11.004;2022-11-15T10:32:48;2.33;;;2.17;;
9729;SDS011;4904;49.152;11.004;2022-11-15T10:35:19;3.05;;;2.20;;
9729;SDS011;4904;49.152;11.004;2022-11-15T10:37:49;2.40;;;2.03;;
9729;SDS011;4904;49.152;11.004;2022-11-15T10:40:17;2.15;;;1.95;;
9729;SDS011;4904;49.152;11.004;2022-11-15T10:42:47;2.13;;;1.95;;
9729;SDS011;4904;49.152;11.004;2022-11-15T10:45:26;2.17;;;1.98;;
9729;SDS011;4904;49.152;11.004;2022-11-15T10:47:59;2.20;;;2.00;;
9729;SDS011;4904;49.152;11.004;2022-11-15T10:50:47;2.70;;;2.05;;
9729;SDS011;4904;49.152;11.004;2022-11-15T10:53:16;2.33;;;2.13;;
9729;SDS011;4904;49.152;11.004;2022-11-15T10:55:47;1.90;;;1.80;;
9729;SDS011;4904;49.152;11.004;2022-11-15T10:58:21;4.07;;;2.00;;
9729;SDS011;4904;49.152;11.004;2022-11-15T11:00:57;2.13;;;1.92;;
9729;SDS011;4904;49.152;11.004;2022-11-15T11:03:37;2.15;;;1.95;;
9729;SDS011;4904;49.152;11.004;2022-11-15T11:06:06;1.90;;;1.70;;
9729;SDS011;4904;49.152;11.004;2022-11-15T11:08:35;2.20;;;2.00;;
9729;SDS011;4904;49.152;11.004;2022-11-15T11:11:03;2.20;;;2.00;;
9729;SDS011;4904;49.152;11.004;2022-11-15T11:13:33;2.63;;;2.00;;
9729;SDS011;4904;49.152;11.004;2022-11-15T11:16:20;2.47;;;2.13;;
9729;SDS011;4904;49.152;11.004;2022-11-15T11:18:57;2.13;;;1.85;;
9729;SDS011;4904;49.152;11.004;2022-11-15T11:21:36;2.67;;;1.85;;
9729;SDS011;4904;49.152;11.004;2022-11-15T11:24:14;2.88;;;1.95;;
9729;SDS011;4904;49.152;11.004;2022-11-15T11:26:56;2.63;;;2.05;;
9729;SDS011;4904;49.152;11.004;2022-11-15T11:29:36;2.00;;;1.80;;
9729;SDS011;4904;49.152;11.004;2022-11-15T11:32:22;2.83;;;2.25;;
9729;SDS011;4904;49.152;11.004;2022-11-15T11:35:03;1.98;;;1.77;;
9729;SDS011;4904;49.152;11.004;2022-11-15T11:37:40;2.00;;;1.80;;
9729;SDS011;4904;49.152;11.004;2022-11-15T11:40:15;2.35;;;2.15;;
9729;SDS011;4904;49.152;11.004;2022-11-15T11:42:53;1.92;;;1.80;;
9729;SDS011;4904;49.152;11.004;2022-11-15T11:45:26;2.45;;;2.15;;
9729;SDS011;4904;49.152;11.004;2022-11-15T11:48:10;4.32;;;2.10;;
9729;SDS011;4904;49.152;11.004;2022-11-15T11:50:39;2.25;;;2.05;;
9729;SDS011;4904;49.152;11.004;2022-11-15T11:53:11;2.42;;;2.00;;
9729;SDS011;4904;49.152;11.004;2022-11-15T11:55:41;2.10;;;1.80;;
9729;SDS011;4904;49.152;11.004;2022-11-15T11:58:12;2.10;;;1.90;;
9729;SDS011;4904;49.152;11.004;2022-11-15T12:00:43;3.05;;;2.00;;
9729;SDS011;4904;49.152;11.004;2022-11-15T12:03:18;2.28;;;1.98;;
9729;SDS011;4904;49.152;11.004;2022-11-15T12:05:52;2.17;;;1.95;;
9729;SDS011;4904;49.152;11.004;2022-11-15T12:08:31;2.42;;;2.10;;
9729;SDS011;4904;49.152;11.004;2022-11-15T12:11:09;3.55;;;2.13;;
9729;SDS011;4904;49.152;11.004;2022-11-15T12:13:39;2.20;;;2.00;;
9729;SDS011;4904;49.152;11.004;2022-11-15T12:16:10;2.97;;;2.28;;
9729;SDS011;4904;49.152;11.004;2022-11-15T12:18:44;3.20;;;2.08;;
9729;SDS011;4904;49.152;11.004;2022-11-15T12:21:16;2.90;;;2.60;;
9729;SDS011;4904;49.152;11.004;2022-11-15T12:23:48;3.53;;;2.30;;
9729;SDS011;4904;49.152;11.004;2022-11-15T12:26:18;3.33;;;2.35;;
9729;SDS011;4904;49.152;11.004;2022-11-15T12:28:49;2.78;;;2.50;;
9729;SDS011;4904;49.152;11.004;2022-11-15T12:31:23;2.38;;;2.17;;
9729;SDS011;4904;49.152;11.004;2022-11-15T12:33:59;3.03;;;2.25;;
9729;SDS011;4904;49.152;11.004;2022-11-15T12:36:36;2.60;;;2.40;;
9729;SDS011;4904;49.152;11.004;2022-11-15T12:39:07;3.55;;;2.15;;
9729;SDS011;4904;49.152;11.004;2022-11-15T12:41:35;4.13;;;2.55;;
9729;SDS011;4904;49.152;11.004;2022-11-15T12:44:03;4.15;;;2.20;;
9729;SDS011;4904;49.152;11.004;2022-11-15T12:49:43;4.35;;;2.58;;
9729;SDS011;4904;49.152;11.004;2022-11-15T12:52:11;2.90;;;2.45;;
9729;SDS011;4904;49.152;11.004;2022-11-15T12:57:32;2.90;;;2.40;;
9729;SDS011;4904;49.152;11.004;2022-11-15T13:00:04;2.60;;;2.40;;
9729;SDS011;4904;49.152;11.004;2022-11-15T13:02:53;2.47;;;2.28;;
9729;SDS011;4904;49.152;11.004;2022-11-15T13:06:09;3.05;;;2.75;;
9729;SDS011;4904;49.152;11.004;2022-11-15T13:09:00;3.97;;;3.20;;
9729;SDS011;4904;49.152;11.004;2022-11-15T13:17:25;2.47;;;2.28;;
9729;SDS011;4904;49.152;11.004;2022-11-15T13:23:01;3.15;;;2.38;;
9729;SDS011;4904;49.152;11.004;2022-11-15T13:28:39;4.18;;;3.10;;
9729;SDS011;4904;49.152;11.004;2022-11-15T13:31:17;5.22;;;2.80;;
9729;SDS011;4904;49.152;11.004;2022-11-15T13:33:48;5.10;;;2.67;;
9729;SDS011;4904;49.152;11.004;2022-11-15T13:36:18;6.18;;;2.65;;
9729;SDS011;4904;49.152;11.004;2022-11-15T13:38:55;2.60;;;2.40;;
9729;SDS011;4904;49.152;11.004;2022-11-15T13:41:25;3.00;;;2.70;;
9729;SDS011;4904;49.152;11.004;2022-11-15T13:43:54;3.05;;;2.70;;
9729;SDS011;4904;49.152;11.004;2022-11-15T13:46:22;3.67;;;2.65;;
9729;SDS011;4904;49.152;11.004;2022-11-15T13:48:52;3.53;;;2.63;;
9729;SDS011;4904;49.152;11.004;2022-11-15T13:51:28;3.08;;;2.53;;
9729;SDS011;4904;49.152;11.004;2022-11-15T13:54:02;3.38;;;2.28;;
9729;SDS011;4904;49.152;11.004;2022-11-15T13:56:38;3.30;;;2.50;;
9729;SDS011;4904;49.152;11.004;2022-11-15T13:59:15;2.70;;;2.50;;
9729;SDS011;4904;49.152;11.004;2022-11-15T14:01:47;2.45;;;2.20;;
9729;SDS011;4904;49.152;11.004;2022-11-15T14:04:17;3.17;;;2.42;;
9729;SDS011;4904;49.152;11.004;2022-11-15T14:06:47;2.15;;;2.00;;
9729;SDS011;4904;49.152;11.004;2022-11-15T14:12:01;2.65;;;2.45;;
9729;SDS011;4904;49.152;11.004;2022-11-15T14:14:47;2.45;;;2.25;;
9729;SDS011;4904;49.152;11.004;2022-11-15T14:17:18;4.03;;;2.20;;
9729;SDS011;4904;49.152;11.004;2022-11-15T14:19:48;2.53;;;2.08;;
9729;SDS011;4904;49.152;11.004;2022-11-15T14:22:20;3.38;;;2.53;;
9729;SDS011;4904;49.152;11.004;2022-11-15T14:28:07;3.67;;;2.72;;
9729;SDS011;4904;49.152;11.004;2022-11-15T14:30:36;2.67;;;2.20;;
9729;SDS011;4904;49.152;11.004;2022-11-15T14:33:14;3.50;;;2.75;;
9729;SDS011;4904;49.152;11.004;2022-11-15T14:35:45;3.92;;;2.80;;
9729;SDS011;4904;49.152;11.004;2022-11-15T14:38:13;4.13;;;2.53;;
9729;SDS011;4904;49.152;11.004;2022-11-15T14:40:41;4.63;;;2.42;;
9729;SDS011;4904;49.152;11.004;2022-11-15T14:43:09;3.00;;;2.55;;
9729;SDS011;4904;49.152;11.004;2022-11-15T14:45:37;3.35;;;2.45;;
9729;SDS011;4904;49.152;11.004;2022-11-15T14:48:04;5.20;;;2.80;;
9729;SDS011;4904;49.152;11.004;2022-11-15T14:50:32;6.80;;;2.85;;
9729;SDS011;4904;49.152;11.004;2022-11-15T14:55:26;5.55;;;3.15;;
9729;SDS011;4904;49.152;11.004;2022-11-15T14:58:06;5.53;;;2.80;;
9729;SDS011;4904;49.152;11.004;2022-11-15T15:00:35;3.55;;;2.70;;
9729;SDS011;4904;49.152;11.004;2022-11-15T15:03:04;5.00;;;2.72;;
9729;SDS011;4904;49.152;11.004;2022-11-15T15:05:33;4.85;;;2.40;;
9729;SDS011;4904;49.152;11.004;2022-11-15T15:11:07;3.03;;;2.47;;
9729;SDS011;4904;49.152;11.004;2022-11-15T15:13:40;2.40;;;2.20;;
9729;SDS011;4904;49.152;11.004;2022-11-15T15:16:08;3.20;;;2.78;;
9729;SDS011;4904;49.152;11.004;2022-11-15T15:18:35;3.28;;;2.65;;
9729;SDS011;4904;49.152;11.004;2022-11-15T15:21:18;3.05;;;2.60;;
9729;SDS011;4904;49.152;11.004;2022-11-15T15:23:48;5.82;;;2.50;;
9729;SDS011;4904;49.152;11.004;2022-11-15T15:26:15;5.13;;;2.92;;
9729;SDS011;4904;49.152;11.004;2022-11-15T15:28:44;3.35;;;2.53;;
9729;SDS011;4904;49.152;11.004;2022-11-15T15:31:13;4.07;;;2.83;;
9729;SDS011;4904;49.152;11.004;2022-11-15T15:33:42;5.22;;;3.03;;
9729;SDS011;4904;49.152;11.004;2022-11-15T15:39:02;3.50;;;2.75;;
9729;SDS011;4904;49.152;11.004;2022-11-15T15:41:29;3.58;;;3.22;;
9729;SDS011;4904;49.152;11.004;2022-11-15T15:44:00;5.15;;;3.10;;
9729;SDS011;4904;49.152;11.004;2022-11-15T15:46:27;4.63;;;3.17;;
9729;SDS011;4904;49.152;11.004;2022-11-15T15:52:19;3.20;;;2.90;;
9729;SDS011;4904;49.152;11.004;2022-11-15T15:54:46;5.07;;;3.47;;
9729;SDS011;4904;49.152;11.004;2022-11-15T15:57:13;5.78;;;3.17;;
9729;SDS011;4904;49.152;11.004;2022-11-15T15:59:42;4.95;;;3.38;;
9729;SDS011;4904;49.152;11.004;2022-11-15T16:02:09;3.97;;;3.05;;
9729;SDS011;4904;49.152;11.004;2022-11-15T16:04:40;4.13;;;3.10;;
9729;SDS011;4904;49.152;11.004;2022-11-15T16:07:08;4.10;;;3.25;;